KFTN

Carrizo Springs

Carrizo Springs, Texas, USA
METAR KFTN 212135Z AUTO 12011G17KT 10SM SCT041 SCT047 SCT055 33/21 A2988 RMK A01
Observed Flight Rules
Jun-21 @ 21:35 UTC (31 minutes ago) Visual Flight Rules
Wind Visibility Clouds
120° at 11 knots
 Gusting to 17 knots
10 miles
  • Scattered at 4,100' AGL
  • Scattered at 4,700' AGL
  • Scattered at 5,500' AGL
Temperatures Readings
Current 33°C / 91°F
Dewpoint 21°C / 70°F
Humidity 49%
Altimeter 29.88" Hg
Pressure 1012 hPa
Elevation 236
METAR KFTN 212135Z AUTO 12011G17KT 10SM SCT041 SCT047 SCT055 33/21 A2988 RMK A01
Observed Flight Rules
Jun-21 @ 21:35 UTC
(31 minutes ago)
VFR
Wind Visibility
120° at 11 knots
 Gusting to 17 knots
10 miles
Clouds
  • Scattered at 4,100' AGL
  • Scattered at 4,700' AGL
  • Scattered at 5,500' AGL
Temperature Dewpoint
33°C / 91°F 21°C / 70°F
Humidity Altimeter Pressure
49% 29.88" Hg 1012 hPa